| time (UTC) | temp F | wind direction | speed MPH | gust MPH | rain 1hr in | rain 24hr in | rain mn in | humidity % | barometer mb |
| 20260904163552 | 81 | 0 | 0.0 | 2.0 | 0.14 | 0.15 | 0.15 | 91 | 1014.8 |
| 20260904163110 | 79 | 0 | 0.0 | 2.0 | 0.15 | 0.15 | 0.15 | 93 | 1014.8 |
| 20260904162556 | 78 | 43 | 0.0 | 2.0 | 0.15 | 0.15 | 0.15 | 91 | 1015.0 |
| 20260904162055 | 78 | 0 | 0.0 | 1.0 | 0.15 | 0.15 | 0.15 | 93 | 1014.9 |
| 20260904161619 | 78 | 0 | 0.0 | 1.0 | 0.15 | 0.15 | 0.15 | 92 | 1015.0 |
| 20260904161055 | 78 | 0 | 0.0 | 1.0 | 0.15 | 0.15 | 0.15 | 92 | 1014.9 |
| 20260904160557 | 77 | 0 | 0.0 | 1.0 | 0.14 | 0.14 | 0.14 | 91 | 1015.0 |
| 20260904160112 | 77 | 0 | 0.0 | 1.0 | 0.11 | 0.11 | 0.11 | 91 | 1015.1 |
| 20260904155556 | 78 | 0 | 0.0 | 1.0 | 0.10 | 0.10 | 0.10 | 90 | 1015.1 |
| 20260904155056 | 78 | 0 | 0.0 | 3.0 | 0.04 | 0.04 | 0.04 | 89 | 1014.9 |
| 20260904154612 | 78 | 0 | 0.0 | 3.0 | 0.03 | 0.03 | 0.03 | 88 | 1015.0 |
| 20260904154056 | 78 | 246 | 0.0 | 3.0 | 0.02 | 0.02 | 0.02 | 86 | 1015.0 |
| 20260904153556 | 79 | 0 | 0.0 | 8.0 | 0.01 | 0.01 | 0.01 | 84 | 1015.0 |
| 20260904153126 | 80 | 0 | 1.0 | 8.0 | 0.00 | 0.00 | 0.00 | 81 | 1014.9 |
| 20260904152555 | 81 | 0 | 0.0 | 4.0 | 0.00 | 0.00 | 0.00 | 80 | 1014.6 |
| 20260904152055 | 80 | 133 | 1.0 | 3.0 | 0.00 | 0.00 | 0.00 | 80 | 1014.8 |
| 20260904151625 | 80 | 217 | 1.0 | 4.0 | 0.00 | 0.00 | 0.00 | 80 | 1014.7 |
| 20260904151055 | 80 | 61 | 1.0 | 4.0 | 0.00 | 0.00 | 0.00 | 80 | 1014.6 |
| 20260904150556 | 80 | 302 | 0.0 | 3.0 | 0.00 | 0.00 | 0.00 | 83 | 1014.6 |
| 20260904150105 | 80 | 0 | 0.0 | 3.0 | 0.00 | 0.00 | 0.00 | 85 | 1014.7 |
| 20260904145556 | 80 | 0 | 1.0 | 3.0 | 0.00 | 0.00 | 0.00 | 85 | 1014.6 |
| 20260904145055 | 80 | 50 | 0.0 | 3.0 | 0.00 | 0.00 | 0.00 | 86 | 1014.6 |
| 20260904144622 | 79 | 201 | 1.0 | 3.0 | 0.00 | 0.00 | 0.00 | 86 | 1014.7 |
| 20260904144056 | 80 | 138 | 0.0 | 5.0 | 0.00 | 0.00 | 0.00 | 86 | 1014.6 |
| 20260904143556 | 79 | 65 | 0.0 | 5.0 | 0.00 | 0.00 | 0.00 | 87 | 1014.4 |
| 20260904143107 | 79 | 0 | 1.0 | 3.0 | 0.00 | 0.00 | 0.00 | 87 | 1014.5 |
| 20260904142557 | 79 | 0 | 0.0 | 2.0 | 0.00 | 0.00 | 0.00 | 88 | 1014.5 |
| 20260904142055 | 79 | 0 | 0.0 | 2.0 | 0.00 | 0.00 | 0.00 | 88 | 1014.5 |
| 20260904141606 | 79 | 64 | 0.0 | 2.0 | 0.00 | 0.00 | 0.00 | 88 | 1014.5 |
| 20260904141056 | 79 | 0 | 0.0 | 3.0 | 0.00 | 0.00 | 0.00 | 88 | 1014.7 |
| 20260904140556 | 79 | 140 | 0.0 | 3.0 | 0.00 | 0.00 | 0.00 | 88 | 1014.7 |
| 20260904140106 | 79 | 213 | 0.0 | 2.0 | 0.00 | 0.00 | 0.00 | 88 | 1014.5 |
| 20260904135600 | 79 | 0 | 0.0 | 2.0 | 0.00 | 0.00 | 0.00 | 88 | 1014.3 |
| 20260904135055 | 79 | 0 | 0.0 | 3.0 | 0.00 | 0.00 | 0.00 | 88 | 1014.3 |
| 20260904134608 | 79 | 0 | 0.0 | 3.0 | 0.00 | 0.00 | 0.00 | 88 | 1014.4 |
| 20260904134056 | 79 | 0 | 0.0 | 4.0 | 0.00 | 0.00 | 0.00 | 88 | 1014.2 |
| 20260904133557 | 79 | 0 | 1.0 | 4.0 | 0.00 | 0.00 | 0.00 | 88 | 1014.2 |
| 20260904133103 | 79 | 0 | 1.0 | 4.0 | 0.00 | 0.00 | 0.00 | 87 | 1014.1 |
| 20260904132556 | 79 | 77 | 1.0 | 3.0 | 0.00 | 0.00 | 0.00 | 87 | 1014.2 |
| 20260904132059 | 78 | 63 | 0.0 | 3.0 | 0.00 | 0.00 | 0.00 | 87 | 1014.2 |
| 20260904131605 | 78 | 227 | 1.0 | 4.0 | 0.00 | 0.00 | 0.00 | 87 | 1014.2 |
| 20260904131058 | 78 | 44 | 1.0 | 4.0 | 0.00 | 0.00 | 0.00 | 87 | 1014.1 |
| 20260904130556 | 78 | 90 | 1.0 | 4.0 | 0.00 | 0.00 | 0.00 | 87 | 1013.9 |
| 20260904130109 | 78 | 174 | 1.0 | 4.0 | 0.00 | 0.00 | 0.00 | 88 | 1013.8 |
| 20260904125556 | 78 | 0 | 1.0 | 4.0 | 0.00 | 0.00 | 0.00 | 88 | 1013.6 |
| 20260904125059 | 78 | 204 | 0.0 | 2.0 | 0.00 | 0.00 | 0.00 | 88 | 1013.5 |
| 20260904124614 | 78 | 0 | 0.0 | 2.0 | 0.00 | 0.00 | 0.00 | 88 | 1013.5 |
| 20260904124059 | 78 | 0 | 0.0 | 3.0 | 0.00 | 0.00 | 0.00 | 88 | 1013.7 |
| 20260904123557 | 78 | 214 | 0.0 | 3.0 | 0.00 | 0.00 | 0.00 | 88 | 1013.7 |
| 20260904123106 | 78 | 0 | 0.0 | 2.0 | 0.00 | 0.00 | 0.00 | 87 | 1013.3 |
| 20260904122557 | 78 | 116 | 0.0 | 2.0 | 0.00 | 0.00 | 0.00 | 87 | 1013.2 |
| 20260904122058 | 78 | 0 | 0.0 | 2.0 | 0.00 | 0.00 | 0.00 | 87 | 1013.1 |
| 20260904121607 | 77 | 78 | 0.0 | 2.0 | 0.00 | 0.00 | 0.00 | 87 | 1013.1 |
| 20260904121100 | 77 | 0 | 0.0 | 3.0 | 0.00 | 0.00 | 0.00 | 87 | 1013.1 |
| 20260904120556 | 77 | 0 | 0.0 | 3.0 | 0.00 | 0.00 | 0.00 | 87 | 1013.0 |
| 20260904120132 | 77 | 38 | 0.0 | 3.0 | 0.00 | 0.00 | 0.00 | 87 | 1012.9 |
| 20260904115557 | 77 | 0 | 0.0 | 2.0 | 0.00 | 0.00 | 0.00 | 87 | 1012.9 |
| 20260904115056 | 77 | 0 | 0.0 | 2.0 | 0.00 | 0.00 | 0.00 | 87 | 1013.0 |
| 20260904114608 | 77 | 0 | 0.0 | 2.0 | 0.00 | 0.00 | 0.00 | 87 | 1013.0 |
| 20260904114056 | 78 | 53 | 0.0 | 3.0 | 0.00 | 0.00 | 0.00 | 87 | 1012.9 |
| 20260904113555 | 78 | 0 | 0.0 | 3.0 | 0.00 | 0.00 | 0.00 | 87 | 1012.9 |
| 20260904113107 | 78 | 0 | 0.0 | 2.0 | 0.00 | 0.00 | 0.00 | 87 | 1012.9 |
| 20260904112600 | 78 | 59 | 0.0 | 2.0 | 0.00 | 0.00 | 0.00 | 87 | 1012.8 |
| 20260904112101 | 78 | 0 | 0.0 | 2.0 | 0.00 | 0.00 | 0.00 | 87 | 1012.8 |
| 20260904111612 | 78 | 112 | 0.0 | 3.0 | 0.00 | 0.00 | 0.00 | 87 | 1012.8 |
| 20260904111057 | 78 | 90 | 1.0 | 3.0 | 0.00 | 0.00 | 0.00 | 87 | 1012.9 |
| 20260904110600 | 78 | 191 | 0.0 | 3.0 | 0.00 | 0.00 | 0.00 | 86 | 1012.8 |
| 20260904110116 | 78 | 0 | 0.0 | 4.0 | 0.00 | 0.00 | 0.00 | 86 | 1012.7 |
| 20260904105558 | 79 | 215 | 0.0 | 4.0 | 0.00 | 0.00 | 0.00 | 85 | 1012.5 |
| 20260904105058 | 79 | 56 | 1.0 | 4.0 | 0.00 | 0.00 | 0.00 | 85 | 1012.7 |
| 20260904104605 | 79 | 181 | 1.0 | 6.0 | 0.00 | 0.00 | 0.00 | 84 | 1012.5 |
| 20260904104058 | 79 | 173 | 0.0 | 7.0 | 0.00 | 0.00 | 0.00 | 84 | 1012.5 |
| 20260904103559 | 79 | 0 | 2.0 | 7.0 | 0.00 | 0.00 | 0.00 | 85 | 1012.6 |
| 20260904103107 | 78 | 79 | 1.0 | 3.0 | 0.00 | 0.00 | 0.00 | 85 | 1012.7 |
| 20260904102554 | 78 | 39 | 1.0 | 3.0 | 0.00 | 0.00 | 0.00 | 85 | 1012.7 |
| 20260904102053 | 78 | 0 | 1.0 | 4.0 | 0.00 | 0.00 | 0.00 | 85 | 1012.5 |
| 20260904101603 | 78 | 0 | 1.0 | 4.0 | 0.00 | 0.00 | 0.00 | 85 | 1012.4 |
| 20260904101054 | 78 | 0 | 0.0 | 4.0 | 0.00 | 0.00 | 0.00 | 86 | 1012.5 |
| 20260904100554 | 78 | 0 | 0.0 | 4.0 | 0.00 | 0.00 | 0.00 | 86 | 1012.6 |
| 20260904100107 | 78 | 0 | 0.0 | 3.0 | 0.00 | 0.00 | 0.00 | 86 | 1012.4 |
| 20260904095555 | 78 | 0 | 0.0 | 3.0 | 0.00 | 0.00 | 0.00 | 86 | 1012.6 |
| 20260904095055 | 78 | 0 | 1.0 | 3.0 | 0.00 | 0.00 | 0.00 | 85 | 1012.5 |
| 20260904094615 | 79 | 5 | 0.0 | 4.0 | 0.00 | 0.00 | 0.00 | 85 | 1012.3 |
| 20260904094055 | 79 | 0 | 0.0 | 4.0 | 0.00 | 0.00 | 0.00 | 85 | 1012.3 |
| 20260904093554 | 79 | 76 | 1.0 | 4.0 | 0.00 | 0.00 | 0.00 | 85 | 1012.4 |
| 20260904093104 | 79 | 119 | 1.0 | 7.0 | 0.00 | 0.00 | 0.00 | 85 | 1012.4 |
| 20260904092558 | 79 | 0 | 1.0 | 7.0 | 0.00 | 0.00 | 0.00 | 84 | 1012.3 |
| 20260904092054 | 79 | 39 | 0.0 | 4.0 | 0.00 | 0.00 | 0.00 | 84 | 1012.4 |
| 20260904091606 | 79 | 80 | 1.0 | 4.0 | 0.00 | 0.00 | 0.00 | 84 | 1012.5 |
| 20260904091055 | 79 | 89 | 0.0 | 4.0 | 0.00 | 0.00 | 0.00 | 84 | 1012.6 |
| 20260904090554 | 79 | 74 | 2.0 | 5.0 | 0.00 | 0.00 | 0.00 | 84 | 1012.5 |
| 20260904090107 | 79 | 64 | 2.0 | 6.0 | 0.00 | 0.00 | 0.00 | 84 | 1012.5 |
| 20260904085557 | 79 | 63 | 1.0 | 6.0 | 0.00 | 0.00 | 0.00 | 84 | 1012.5 |
| 20260904085054 | 79 | 240 | 2.0 | 5.0 | 0.00 | 0.00 | 0.00 | 84 | 1012.5 |
| 20260904084604 | 79 | 58 | 2.0 | 5.0 | 0.00 | 0.00 | 0.00 | 84 | 1012.3 |
| 20260904084055 | 79 | 53 | 1.0 | 4.0 | 0.00 | 0.00 | 0.00 | 84 | 1012.4 |
| 20260904083558 | 79 | 140 | 1.0 | 5.0 | 0.00 | 0.00 | 0.00 | 84 | 1012.4 |
| 20260904083108 | 79 | 46 | 1.0 | 5.0 | 0.00 | 0.00 | 0.00 | 84 | 1012.4 |
| 20260904082558 | 79 | 31 | 1.0 | 7.0 | 0.00 | 0.00 | 0.00 | 84 | 1012.3 |
| 20260904082057 | 79 | 129 | 2.0 | 7.0 | 0.00 | 0.00 | 0.00 | 84 | 1012.4 |
| 20260904081642 | 79 | 55 | 1.0 | 4.0 | 0.00 | 0.00 | 0.00 | 84 | 1012.3 |
| 20260904081057 | 79 | 54 | 2.0 | 6.0 | 0.00 | 0.00 | 0.00 | 85 | 1012.3 |
| 20260904080554 | 79 | 76 | 2.0 | 6.0 | 0.00 | 0.00 | 0.00 | 85 | 1012.3 |
| 20260904080105 | 79 | 243 | 1.0 | 7.0 | 0.00 | 0.00 | 0.00 | 85 | 1012.4 |
| 20260904075554 | 79 | 140 | 2.0 | 7.0 | 0.00 | 0.00 | 0.00 | 85 | 1012.2 |
| 20260904075055 | 79 | 233 | 1.0 | 4.0 | 0.00 | 0.00 | 0.00 | 85 | 1012.4 |
| 20260904074619 | 79 | 50 | 0.0 | 5.0 | 0.00 | 0.00 | 0.00 | 85 | 1012.3 |
| 20260904074054 | 79 | 40 | 1.0 | 5.0 | 0.00 | 0.00 | 0.00 | 85 | 1012.4 |
| 20260904073554 | 79 | 49 | 1.0 | 5.0 | 0.00 | 0.00 | 0.00 | 85 | 1012.4 |
| 20260904073112 | 79 | 65 | 1.0 | 3.0 | 0.00 | 0.00 | 0.00 | 85 | 1012.6 |
| 20260904072557 | 79 | 51 | 0.0 | 4.0 | 0.00 | 0.00 | 0.00 | 85 | 1012.5 |
| 20260904072056 | 79 | 59 | 1.0 | 4.0 | 0.00 | 0.00 | 0.00 | 84 | 1012.7 |
| 20260904071608 | 79 | 0 | 1.0 | 4.0 | 0.00 | 0.00 | 0.00 | 84 | 1012.9 |
| 20260904071054 | 79 | 121 | 1.0 | 4.0 | 0.00 | 0.00 | 0.00 | 84 | 1012.8 |
| 20260904070555 | 79 | 102 | 1.0 | 4.0 | 0.00 | 0.00 | 0.00 | 84 | 1012.9 |
| 20260904070124 | 79 | 126 | 1.0 | 4.0 | 0.00 | 0.00 | 0.00 | 84 | 1012.9 |
| 20260904065554 | 79 | 30 | 1.0 | 3.0 | 0.00 | 0.00 | 0.00 | 84 | 1012.9 |
| 20260904065054 | 79 | 78 | 1.0 | 4.0 | 0.00 | 0.00 | 0.00 | 84 | 1012.9 |
| 20260904064606 | 79 | 163 | 1.0 | 4.0 | 0.00 | 0.00 | 0.00 | 84 | 1013.0 |
| 20260904064054 | 79 | 0 | 1.0 | 4.0 | 0.00 | 0.00 | 0.00 | 84 | 1012.8 |
| 20260904063554 | 79 | 79 | 1.0 | 4.0 | 0.00 | 0.00 | 0.00 | 84 | 1012.6 |
| 20260904063103 | 79 | 171 | 1.0 | 4.0 | 0.00 | 0.00 | 0.00 | 84 | 1012.8 |
| 20260904062554 | 79 | 57 | 1.0 | 4.0 | 0.00 | 0.00 | 0.00 | 84 | 1012.9 |
| 20260904062054 | 79 | 147 | 1.0 | 3.0 | 0.00 | 0.00 | 0.00 | 84 | 1013.0 |
| 20260904061608 | 79 | 57 | 0.0 | 5.0 | 0.00 | 0.00 | 0.00 | 84 | 1012.9 |
| 20260904061055 | 79 | 167 | 1.0 | 5.0 | 0.00 | 0.00 | 0.00 | 83 | 1012.8 |
| 20260904060555 | 79 | 80 | 0.0 | 4.0 | 0.00 | 0.00 | 0.00 | 83 | 1012.8 |
| 20260904060116 | 79 | 0 | 1.0 | 4.0 | 0.00 | 0.00 | 0.00 | 83 | 1012.8 |
| 20260904055556 | 79 | 0 | 1.0 | 4.0 | 0.00 | 0.00 | 0.00 | 83 | 1012.7 |
| 20260904055056 | 79 | 95 | 1.0 | 4.0 | 0.00 | 0.00 | 0.00 | 83 | 1012.7 |
| 20260904054607 | 79 | 84 | 1.0 | 4.0 | 0.00 | 0.00 | 0.00 | 83 | 1012.5 |
| 20260904054055 | 79 | 121 | 1.0 | 4.0 | 0.00 | 0.00 | 0.00 | 83 | 1012.7 |
| 20260904053554 | 79 | 48 | 1.0 | 5.0 | 0.00 | 0.00 | 0.00 | 83 | 1012.7 |
| 20260904053110 | 79 | 53 | 1.0 | 5.0 | 0.00 | 0.00 | 0.00 | 83 | 1012.5 |
| 20260904052555 | 79 | 54 | 1.0 | 7.0 | 0.00 | 0.00 | 0.00 | 83 | 1012.4 |
| 20260904052056 | 79 | 125 | 2.0 | 7.0 | 0.00 | 0.00 | 0.00 | 83 | 1012.5 |
| 20260904051609 | 80 | 46 | 1.0 | 6.0 | 0.00 | 0.00 | 0.00 | 82 | 1012.4 |
| 20260904051054 | 80 | 42 | 2.0 | 6.0 | 0.00 | 0.00 | 0.00 | 82 | 1012.4 |
| 20260904050554 | 80 | 75 | 1.0 | 5.0 | 0.00 | 0.00 | 0.00 | 82 | 1012.5 |
| 20260904050109 | 80 | 65 | 1.0 | 5.0 | 0.00 | 0.00 | 0.00 | 82 | 1012.8 |
| 20260904045554 | 80 | 0 | 1.0 | 5.0 | 0.00 | 0.00 | 0.00 | 82 | 1012.7 |
| 20260904045054 | 80 | 185 | 2.0 | 5.0 | 0.00 | 0.00 | 0.00 | 82 | 1012.5 |
| 20260904044605 | 80 | 67 | 2.0 | 5.0 | 0.00 | 0.00 | 0.00 | 82 | 1012.7 |
| 20260904044056 | 80 | 76 | 1.0 | 5.0 | 0.00 | 0.00 | 0.00 | 82 | 1012.7 |
| 20260904043556 | 80 | 72 | 1.0 | 4.0 | 0.00 | 0.00 | 0.00 | 82 | 1012.7 |
| 20260904043124 | 80 | 228 | 1.0 | 4.0 | 0.00 | 0.00 | 0.00 | 82 | 1012.7 |
| 20260904042555 | 80 | 131 | 1.0 | 4.0 | 0.00 | 0.00 | 0.00 | 81 | 1012.7 |
| 20260904042057 | 80 | 137 | 1.0 | 4.0 | 0.00 | 0.00 | 0.00 | 81 | 1012.5 |
| 20260904041609 | 80 | 161 | 1.0 | 5.0 | 0.00 | 0.00 | 0.00 | 81 | 1012.3 |
| 20260904041054 | 80 | 115 | 1.0 | 6.0 | 0.00 | 0.00 | 0.00 | 81 | 1012.3 |
| 20260904040555 | 80 | 0 | 1.0 | 7.0 | 0.00 | 0.00 | 0.00 | 80 | 1012.2 |
| 20260904040110 | 80 | 80 | 1.0 | 7.0 | 0.00 | 0.00 | 0.00 | 80 | 1012.4 |
| 20260904035554 | 80 | 187 | 1.0 | 6.0 | 0.00 | 0.00 | 0.00 | 80 | 1012.5 |
| 20260904035054 | 81 | 141 | 1.0 | 6.0 | 0.00 | 0.00 | 0.00 | 79 | 1012.6 |
| 20260904034605 | 81 | 227 | 1.0 | 4.0 | 0.00 | 0.00 | 0.00 | 79 | 1012.5 |
| 20260904034054 | 81 | 145 | 1.0 | 4.0 | 0.00 | 0.00 | 0.00 | 78 | 1012.7 |
| 20260904033556 | 81 | 82 | 1.0 | 6.0 | 0.00 | 0.00 | 0.00 | 78 | 1012.7 |
| 20260904033108 | 81 | 65 | 1.0 | 6.0 | 0.00 | 0.00 | 0.00 | 78 | 1012.6 |
| 20260904032554 | 81 | 176 | 1.0 | 6.0 | 0.00 | 0.00 | 0.00 | 77 | 1012.6 |
| 20260904032055 | 81 | 183 | 1.0 | 6.0 | 0.00 | 0.00 | 0.00 | 77 | 1012.5 |
| 20260904031604 | 81 | 58 | 1.0 | 5.0 | 0.00 | 0.00 | 0.00 | 76 | 1012.4 |
| 20260904031054 | 81 | 185 | 2.0 | 5.0 | 0.00 | 0.00 | 0.00 | 76 | 1012.3 |
| 20260904030554 | 82 | 0 | 2.0 | 5.0 | 0.00 | 0.00 | 0.00 | 76 | 1012.4 |
| 20260904030106 | 82 | 0 | 2.0 | 6.0 | 0.00 | 0.00 | 0.00 | 75 | 1012.3 |
| 20260904025554 | 82 | 75 | 2.0 | 6.0 | 0.00 | 0.00 | 0.00 | 75 | 1012.2 |
| 20260904025054 | 82 | 211 | 1.0 | 5.0 | 0.00 | 0.00 | 0.00 | 74 | 1012.2 |
| 20260904024605 | 82 | 211 | 2.0 | 5.0 | 0.00 | 0.00 | 0.00 | 74 | 1012.0 |
| 20260904024056 | 82 | 207 | 1.0 | 4.0 | 0.00 | 0.00 | 0.00 | 73 | 1011.9 |
| 20260904023553 | 83 | 178 | 2.0 | 6.0 | 0.00 | 0.00 | 0.00 | 73 | 1011.9 |
| 20260904023105 | 83 | 153 | 1.0 | 6.0 | 0.00 | 0.00 | 0.00 | 73 | 1011.9 |
| 20260904022556 | 83 | 131 | 1.0 | 7.0 | 0.00 | 0.00 | 0.00 | 72 | 1011.8 |
| 20260904022054 | 83 | 153 | 1.0 | 7.0 | 0.00 | 0.00 | 0.00 | 72 | 1011.7 |
| 20260904021607 | 83 | 104 | 2.0 | 7.0 | 0.00 | 0.00 | 0.00 | 71 | 1011.6 |
| 20260904021054 | 83 | 158 | 1.0 | 5.0 | 0.00 | 0.00 | 0.00 | 71 | 1011.5 |
| 20260904020554 | 83 | 79 | 2.0 | 6.0 | 0.00 | 0.00 | 0.00 | 70 | 1011.5 |
| 20260904020106 | 83 | 118 | 1.0 | 6.0 | 0.00 | 0.00 | 0.00 | 70 | 1011.3 |
| 20260904015555 | 84 | 106 | 2.0 | 7.0 | 0.00 | 0.00 | 0.00 | 69 | 1011.3 |
| 20260904015056 | 84 | 78 | 2.0 | 7.0 | 0.00 | 0.00 | 0.00 | 69 | 1011.3 |
| 20260904014645 | 84 | 126 | 2.0 | 7.0 | 0.00 | 0.00 | 0.00 | 69 | 1011.2 |
| 20260904014056 | 84 | 76 | 1.0 | 7.0 | 0.00 | 0.00 | 0.00 | 68 | 1011.3 |
| 20260904013559 | 84 | 109 | 1.0 | 6.0 | 0.00 | 0.00 | 0.00 | 68 | 1011.2 |
| 20260904013105 | 85 | 0 | 1.0 | 6.0 | 0.00 | 0.00 | 0.00 | 68 | 1011.2 |
| 20260904012556 | 85 | 137 | 2.0 | 7.0 | 0.00 | 0.00 | 0.00 | 67 | 1011.2 |
| 20260904012055 | 85 | 196 | 2.0 | 8.0 | 0.00 | 0.00 | 0.00 | 67 | 1011.1 |
| 20260904011608 | 85 | 119 | 2.0 | 8.0 | 0.00 | 0.00 | 0.00 | 66 | 1010.9 |
| 20260904011059 | 86 | 68 | 2.0 | 8.0 | 0.00 | 0.00 | 0.00 | 66 | 1010.9 |
| 20260904010555 | 86 | 67 | 2.0 | 6.0 | 0.00 | 0.00 | 0.00 | 66 | 1010.8 |
| 20260904010107 | 86 | 88 | 2.0 | 8.0 | 0.00 | 0.00 | 0.00 | 65 | 1010.8 |
| 20260904005556 | 87 | 14 | 2.0 | 8.0 | 0.00 | 0.00 | 0.00 | 65 | 1010.7 |
| 20260904005055 | 87 | 29 | 2.0 | 8.0 | 0.00 | 0.00 | 0.00 | 64 | 1010.7 |
| 20260904004605 | 87 | 205 | 2.0 | 8.0 | 0.00 | 0.00 | 0.00 | 64 | 1010.6 |
| 20260904004056 | 87 | 54 | 3.0 | 9.0 | 0.00 | 0.00 | 0.00 | 64 | 1010.5 |
| 20260904003555 | 88 | 53 | 2.0 | 9.0 | 0.00 | 0.00 | 0.00 | 65 | 1010.4 |
| 20260904003113 | 88 | 70 | 3.0 | 9.0 | 0.00 | 0.00 | 0.00 | 65 | 1010.6 |
| 20260904002556 | 88 | 62 | 2.0 | 9.0 | 0.00 | 0.00 | 0.00 | 65 | 1010.5 |
| 20260904002058 | 88 | 96 | 2.0 | 8.0 | 0.00 | 0.00 | 0.00 | 65 | 1010.6 |
| 20260904001610 | 89 | 188 | 2.0 | 7.0 | 0.00 | 0.00 | 0.00 | 65 | 1010.4 |
| 20260904001055 | 89 | 131 | 2.0 | 7.0 | 0.00 | 0.00 | 0.00 | 65 | 1010.5 |
| 20260904000557 | 89 | 157 | 2.0 | 8.0 | 0.00 | 0.00 | 0.00 | 65 | 1010.4 |
| 20260904000141 | 90 | 52 | 2.0 | 8.0 | 0.00 | 0.00 | 0.00 | 65 | 1010.4 |
| 20260903235555 | 90 | 134 | 3.0 | 9.0 | 0.00 | 0.00 | 0.00 | 65 | 1010.5 |
| 20260903235055 | 90 | 59 | 1.0 | 9.0 | 0.00 | 0.00 | 0.00 | 65 | 1010.6 |
| 20260903234604 | 91 | 121 | 3.0 | 11.0 | 0.00 | 0.00 | 0.00 | 64 | 1010.4 |
| 20260903234056 | 91 | 24 | 2.0 | 11.0 | 0.00 | 0.00 | 0.00 | 64 | 1010.2 |
| 20260903233559 | 91 | 212 | 2.0 | 9.0 | 0.00 | 0.00 | 0.00 | 64 | 1010.3 |
| 20260903233103 | 91 | 180 | 2.0 | 10.0 | 0.00 | 0.00 | 0.00 | 65 | 1010.1 |
| 20260903232556 | 91 | 171 | 3.0 | 10.0 | 0.00 | 0.00 | 0.00 | 64 | 1010.1 |
| 20260903232100 | 91 | 303 | 2.0 | 7.0 | 0.00 | 0.00 | 0.00 | 64 | 1010.1 |
| 20260903231623 | 91 | 151 | 2.0 | 7.0 | 0.00 | 0.00 | 0.00 | 64 | 1010.0 |
| 20260903231056 | 91 | 74 | 2.0 | 8.0 | 0.00 | 0.00 | 0.00 | 64 | 1010.0 |
| 20260903230555 | 91 | 116 | 3.0 | 9.0 | 0.00 | 0.00 | 0.00 | 64 | 1010.0 |
| 20260903230108 | 91 | 171 | 3.0 | 9.0 | 0.00 | 0.00 | 0.00 | 64 | 1010.0 |
| 20260903225558 | 92 | 80 | 1.0 | 7.0 | 0.00 | 0.00 | 0.00 | 64 | 1009.9 |
| 20260903225055 | 92 | 155 | 2.0 | 7.0 | 0.00 | 0.00 | 0.00 | 63 | 1010.0 |
| 20260903224602 | 92 | 175 | 2.0 | 10.0 | 0.00 | 0.00 | 0.00 | 64 | 1009.9 |
| 20260903224058 | 92 | 111 | 3.0 | 10.0 | 0.00 | 0.00 | 0.00 | 63 | 1010.0 |
| 20260903223554 | 92 | 134 | 1.0 | 7.0 | 0.00 | 0.00 | 0.00 | 64 | 1010.1 |
| 20260903223117 | 92 | 53 | 2.0 | 7.0 | 0.00 | 0.00 | 0.00 | 64 | 1010.1 |
| 20260903222557 | 92 | 60 | 1.0 | 6.0 | 0.00 | 0.00 | 0.00 | 63 | 1010.0 |
| 20260903222055 | 92 | 55 | 2.0 | 9.0 | 0.00 | 0.00 | 0.00 | 63 | 1010.0 |
| 20260903221606 | 93 | 128 | 2.0 | 9.0 | 0.00 | 0.00 | 0.00 | 63 | 1010.1 |
| 20260903221054 | 93 | 159 | 1.0 | 7.0 | 0.00 | 0.00 | 0.00 | 63 | 1010.1 |
| 20260903220555 | 93 | 49 | 3.0 | 7.0 | 0.00 | 0.00 | 0.00 | 62 | 1010.0 |
| 20260903220115 | 94 | 38 | 2.0 | 7.0 | 0.00 | 0.00 | 0.00 | 61 | 1010.1 |
| 20260903215556 | 94 | 225 | 3.0 | 12.0 | 0.00 | 0.00 | 0.00 | 61 | 1010.0 |
| 20260903215054 | 94 | 113 | 3.0 | 12.0 | 0.00 | 0.00 | 0.00 | 61 | 1009.9 |
| 20260903214606 | 94 | 200 | 1.0 | 8.0 | 0.00 | 0.00 | 0.00 | 61 | 1010.0 |
| 20260903214054 | 94 | 69 | 2.0 | 9.0 | 0.00 | 0.00 | 0.00 | 61 | 1010.0 |
| 20260903213554 | 94 | 155 | 2.0 | 9.0 | 0.00 | 0.00 | 0.00 | 60 | 1009.9 |
| 20260903213105 | 95 | 159 | 2.0 | 6.0 | 0.00 | 0.00 | 0.00 | 60 | 1010.0 |
| 20260903212556 | 95 | 239 | 2.0 | 7.0 | 0.00 | 0.00 | 0.00 | 60 | 1010.1 |
| 20260903212055 | 95 | 181 | 2.0 | 7.0 | 0.00 | 0.00 | 0.00 | 60 | 1010.1 |
| 20260903211602 | 95 | 212 | 2.0 | 7.0 | 0.00 | 0.00 | 0.00 | 60 | 1009.9 |
| 20260903211054 | 96 | 44 | 2.0 | 7.0 | 0.00 | 0.00 | 0.00 | 58 | 1010.0 |
| 20260903210554 | 96 | 78 | 2.0 | 6.0 | 0.00 | 0.00 | 0.00 | 59 | 1010.1 |
| 20260903210105 | 95 | 223 | 1.0 | 9.0 | 0.00 | 0.00 | 0.00 | 61 | 1010.1 |
| 20260903205555 | 95 | 143 | 2.0 | 9.0 | 0.00 | 0.00 | 0.00 | 61 | 1010.2 |
| 20260903205054 | 94 | 89 | 2.0 | 8.0 | 0.00 | 0.00 | 0.00 | 61 | 1010.2 |
| 20260903204608 | 95 | 346 | 3.0 | 8.0 | 0.00 | 0.00 | 0.00 | 61 | 1010.3 |
| 20260903204054 | 95 | 59 | 3.0 | 10.0 | 0.00 | 0.00 | 0.00 | 61 | 1010.5 |
| 20260903203600 | 94 | 67 | 3.0 | 10.0 | 0.00 | 0.00 | 0.00 | 61 | 1010.2 |
| 20260903203106 | 95 | 203 | 1.0 | 8.0 | 0.00 | 0.00 | 0.00 | 61 | 1010.5 |
| 20260903202557 | 95 | 49 | 2.0 | 8.0 | 0.00 | 0.00 | 0.00 | 62 | 1010.6 |
| 20260903202054 | 95 | 47 | 2.0 | 9.0 | 0.00 | 0.00 | 0.00 | 62 | 1010.7 |
| 20260903201607 | 94 | 277 | 3.0 | 9.0 | 0.00 | 0.00 | 0.00 | 62 | 1010.8 |
| 20260903201054 | 94 | 71 | 3.0 | 13.0 | 0.00 | 0.00 | 0.00 | 62 | 1010.9 |
| 20260903200555 | 94 | 99 | 3.0 | 13.0 | 0.00 | 0.00 | 0.00 | 61 | 1010.7 |
| 20260903200104 | 94 | 98 | 3.0 | 11.0 | 0.00 | 0.00 | 0.00 | 62 | 1011.0 |
| 20260903195557 | 94 | 352 | 3.0 | 9.0 | 0.00 | 0.00 | 0.00 | 62 | 1010.9 |
| 20260903195054 | 94 | 46 | 3.0 | 10.0 | 0.00 | 0.00 | 0.00 | 63 | 1011.1 |
| 20260903194602 | 94 | 55 | 3.0 | 10.0 | 0.00 | 0.00 | 0.00 | 63 | 1011.1 |
| 20260903194055 | 93 | 106 | 4.0 | 10.0 | 0.00 | 0.00 | 0.00 | 64 | 1011.2 |
| 20260903193554 | 93 | 143 | 3.0 | 8.0 | 0.00 | 0.00 | 0.00 | 64 | 1011.2 |
| 20260903193059 | 93 | 203 | 3.0 | 8.0 | 0.00 | 0.00 | 0.00 | 64 | 1011.3 |
| 20260903192554 | 92 | 54 | 3.0 | 9.0 | 0.00 | 0.00 | 0.00 | 65 | 1011.3 |
| 20260903192054 | 92 | 36 | 3.0 | 9.0 | 0.00 | 0.00 | 0.00 | 66 | 1011.5 |
| 20260903191606 | 91 | 146 | 2.0 | 8.0 | 0.00 | 0.00 | 0.00 | 67 | 1011.4 |
| 20260903191055 | 90 | 91 | 3.0 | 8.0 | 0.00 | 0.00 | 0.00 | 69 | 1011.5 |
| 20260903190555 | 90 | 11 | 3.0 | 8.0 | 0.00 | 0.00 | 0.00 | 68 | 1011.7 |
| 20260903190107 | 90 | 115 | 2.0 | 6.0 | 0.00 | 0.00 | 0.00 | 68 | 1011.8 |
| 20260903185554 | 90 | 182 | 2.0 | 6.0 | 0.00 | 0.00 | 0.00 | 69 | 1011.8 |
| 20260903185054 | 90 | 68 | 1.0 | 6.0 | 0.00 | 0.00 | 0.00 | 69 | 1012.0 |
| 20260903184604 | 89 | 164 | 1.0 | 6.0 | 0.00 | 0.00 | 0.00 | 69 | 1012.1 |
| 20260903184058 | 89 | 147 | 2.0 | 6.0 | 0.00 | 0.00 | 0.00 | 70 | 1012.2 |
| 20260903183555 | 89 | 186 | 2.0 | 6.0 | 0.00 | 0.00 | 0.00 | 70 | 1012.2 |
| 20260903183106 | 89 | 149 | 2.0 | 7.0 | 0.00 | 0.00 | 0.00 | 70 | 1012.3 |
| 20260903182554 | 89 | 150 | 2.0 | 8.0 | 0.00 | 0.00 | 0.00 | 70 | 1012.4 |
| 20260903182054 | 89 | 38 | 2.0 | 8.0 | 0.00 | 0.00 | 0.00 | 69 | 1012.3 |
| 20260903181604 | 89 | 49 | 2.0 | 9.0 | 0.00 | 0.00 | 0.00 | 68 | 1012.4 |
| 20260903181057 | 90 | 137 | 2.0 | 9.0 | 0.00 | 0.00 | 0.00 | 67 | 1012.5 |
| 20260903180555 | 90 | 211 | 2.0 | 8.0 | 0.00 | 0.00 | 0.00 | 67 | 1012.5 |
| 20260903175554 | 90 | 147 | 3.0 | 8.0 | 0.00 | 0.00 | 0.00 | 67 | 1012.7 |
| 20260903175054 | 91 | 360 | 1.0 | 9.0 | 0.00 | 0.00 | 0.00 | 66 | 1012.7 |
| 20260903174601 | 91 | 134 | 2.0 | 9.0 | 0.00 | 0.00 | 0.00 | 65 | 1012.7 |
| 20260903174054 | 91 | 98 | 2.0 | 9.0 | 0.00 | 0.00 | 0.00 | 65 | 1012.7 |
| 20260903173554 | 91 | 109 | 2.0 | 6.0 | 0.00 | 0.00 | 0.00 | 65 | 1012.9 |
| 20260903173109 | 91 | 129 | 2.0 | 6.0 | 0.00 | 0.00 | 0.00 | 64 | 1012.9 |
| 20260903172554 | 90 | 202 | 2.0 | 6.0 | 0.00 | 0.00 | 0.00 | 65 | 1013.0 |
| 20260903172057 | 90 | 171 | 1.0 | 6.0 | 0.00 | 0.00 | 0.00 | 65 | 1013.0 |
| 20260903171611 | 90 | 259 | 2.0 | 6.0 | 0.00 | 0.00 | 0.00 | 65 | 1013.0 |
| 20260903171056 | 90 | 0 | 1.0 | 6.0 | 0.00 | 0.00 | 0.00 | 65 | 1013.1 |
| 20260903170557 | 90 | 130 | 1.0 | 5.0 | 0.00 | 0.00 | 0.00 | 66 | 1013.0 |
| 20260903170110 | 89 | 71 | 2.0 | 5.0 | 0.00 | 0.00 | 0.00 | 65 | 1013.0 |
| 20260903165554 | 89 | 100 | 2.0 | 5.0 | 0.00 | 0.00 | 0.00 | 66 | 1013.0 |
| 20260903165054 | 90 | 63 | 1.0 | 5.0 | 0.00 | 0.00 | 0.00 | 66 | 1013.0 |
| 20260903164608 | 89 | 34 | 1.0 | 6.0 | 0.00 | 0.00 | 0.00 | 67 | 1013.2 |
| 20260903164055 | 88 | 82 | 2.0 | 6.0 | 0.00 | 0.00 | 0.00 | 69 | 1013.3 |